sensor_id;sensor_type;location;lat;lon;timestamp;P1;durP1;ratioP1;P2;durP2;ratioP2
52494;SDS011;38405;53.212;5.660;2024-02-21T00:00:17;36.25;;;5.30;;
52494;SDS011;38405;53.212;5.660;2024-02-21T00:02:43;31.05;;;4.88;;
52494;SDS011;38405;53.212;5.660;2024-02-21T00:05:09;34.55;;;5.78;;
52494;SDS011;38405;53.212;5.660;2024-02-21T00:07:34;34.15;;;5.15;;
52494;SDS011;38405;53.212;5.660;2024-02-21T00:10:00;36.45;;;4.82;;
52494;SDS011;38405;53.212;5.660;2024-02-21T00:12:25;39.38;;;6.45;;
52494;SDS011;38405;53.212;5.660;2024-02-21T00:14:51;30.77;;;4.88;;
52494;SDS011;38405;53.212;5.660;2024-02-21T00:17:17;25.63;;;4.95;;
52494;SDS011;38405;53.212;5.660;2024-02-21T00:19:42;35.10;;;5.32;;
52494;SDS011;38405;53.212;5.660;2024-02-21T00:22:08;30.05;;;5.28;;
52494;SDS011;38405;53.212;5.660;2024-02-21T00:24:33;35.60;;;6.47;;
52494;SDS011;38405;53.212;5.660;2024-02-21T00:26:59;26.58;;;5.03;;
52494;SDS011;38405;53.212;5.660;2024-02-21T00:29:24;34.45;;;5.72;;
52494;SDS011;38405;53.212;5.660;2024-02-21T00:31:51;34.63;;;5.00;;
52494;SDS011;38405;53.212;5.660;2024-02-21T00:34:16;34.88;;;4.95;;
52494;SDS011;38405;53.212;5.660;2024-02-21T00:36:42;32.05;;;5.40;;
52494;SDS011;38405;53.212;5.660;2024-02-21T00:39:07;39.05;;;6.07;;
52494;SDS011;38405;53.212;5.660;2024-02-21T00:41:33;39.88;;;6.22;;
52494;SDS011;38405;53.212;5.660;2024-02-21T00:43:59;38.13;;;6.55;;
52494;SDS011;38405;53.212;5.660;2024-02-21T00:46:24;37.97;;;6.20;;
52494;SDS011;38405;53.212;5.660;2024-02-21T00:48:50;34.33;;;6.00;;
52494;SDS011;38405;53.212;5.660;2024-02-21T00:51:16;39.35;;;7.30;;
52494;SDS011;38405;53.212;5.660;2024-02-21T00:53:42;36.83;;;6.00;;
52494;SDS011;38405;53.212;5.660;2024-02-21T00:56:07;37.30;;;6.20;;
52494;SDS011;38405;53.212;5.660;2024-02-21T00:58:33;36.10;;;5.95;;
52494;SDS011;38405;53.212;5.660;2024-02-21T01:01:00;34.58;;;6.18;;
52494;SDS011;38405;53.212;5.660;2024-02-21T01:03:25;46.00;;;6.25;;
52494;SDS011;38405;53.212;5.660;2024-02-21T01:05:51;35.75;;;6.00;;
52494;SDS011;38405;53.212;5.660;2024-02-21T01:08:17;40.65;;;7.00;;
52494;SDS011;38405;53.212;5.660;2024-02-21T01:10:43;38.50;;;6.80;;
52494;SDS011;38405;53.212;5.660;2024-02-21T01:13:08;50.33;;;7.65;;
52494;SDS011;38405;53.212;5.660;2024-02-21T01:15:34;44.17;;;7.85;;
52494;SDS011;38405;53.212;5.660;2024-02-21T01:18:00;34.63;;;6.90;;
52494;SDS011;38405;53.212;5.660;2024-02-21T01:20:26;37.55;;;7.40;;
52494;SDS011;38405;53.212;5.660;2024-02-21T01:22:52;35.13;;;6.93;;
52494;SDS011;38405;53.212;5.660;2024-02-21T01:25:17;40.38;;;7.35;;
52494;SDS011;38405;53.212;5.660;2024-02-21T01:27:43;42.55;;;7.25;;
52494;SDS011;38405;53.212;5.660;2024-02-21T01:30:09;41.72;;;7.75;;
52494;SDS011;38405;53.212;5.660;2024-02-21T01:32:36;48.65;;;7.40;;
52494;SDS011;38405;53.212;5.660;2024-02-21T01:35:01;41.17;;;6.45;;
52494;SDS011;38405;53.212;5.660;2024-02-21T01:37:27;34.85;;;6.15;;
52494;SDS011;38405;53.212;5.660;2024-02-21T01:39:53;45.80;;;7.57;;
52494;SDS011;38405;53.212;5.660;2024-02-21T01:42:18;33.50;;;6.18;;
52494;SDS011;38405;53.212;5.660;2024-02-21T01:44:44;37.20;;;6.85;;
52494;SDS011;38405;53.212;5.660;2024-02-21T01:47:10;48.03;;;7.32;;
52494;SDS011;38405;53.212;5.660;2024-02-21T01:49:38;42.15;;;6.35;;
52494;SDS011;38405;53.212;5.660;2024-02-21T01:52:08;46.92;;;5.82;;
52494;SDS011;38405;53.212;5.660;2024-02-21T01:54:35;47.67;;;6.97;;
52494;SDS011;38405;53.212;5.660;2024-02-21T01:57:01;38.08;;;6.82;;
52494;SDS011;38405;53.212;5.660;2024-02-21T01:59:27;35.80;;;5.88;;
52494;SDS011;38405;53.212;5.660;2024-02-21T02:01:52;46.45;;;6.20;;
52494;SDS011;38405;53.212;5.660;2024-02-21T02:04:20;52.13;;;6.95;;
52494;SDS011;38405;53.212;5.660;2024-02-21T02:06:46;50.22;;;7.32;;
52494;SDS011;38405;53.212;5.660;2024-02-21T02:09:11;53.88;;;6.90;;
52494;SDS011;38405;53.212;5.660;2024-02-21T02:11:37;47.63;;;6.43;;
52494;SDS011;38405;53.212;5.660;2024-02-21T02:14:03;48.50;;;6.90;;
52494;SDS011;38405;53.212;5.660;2024-02-21T02:16:28;44.75;;;8.48;;
52494;SDS011;38405;53.212;5.660;2024-02-21T02:18:54;47.25;;;7.28;;
52494;SDS011;38405;53.212;5.660;2024-02-21T02:21:26;43.75;;;6.65;;
52494;SDS011;38405;53.212;5.660;2024-02-21T02:23:54;43.45;;;5.97;;
52494;SDS011;38405;53.212;5.660;2024-02-21T02:26:20;47.20;;;6.53;;
52494;SDS011;38405;53.212;5.660;2024-02-21T02:28:45;46.30;;;6.47;;
52494;SDS011;38405;53.212;5.660;2024-02-21T02:31:11;37.15;;;5.93;;
52494;SDS011;38405;53.212;5.660;2024-02-21T02:33:37;43.38;;;6.32;;
52494;SDS011;38405;53.212;5.660;2024-02-21T02:36:02;34.28;;;5.07;;
52494;SDS011;38405;53.212;5.660;2024-02-21T02:38:28;45.42;;;6.68;;
52494;SDS011;38405;53.212;5.660;2024-02-21T02:40:54;61.85;;;6.38;;
52494;SDS011;38405;53.212;5.660;2024-02-21T02:43:19;46.42;;;6.55;;
52494;SDS011;38405;53.212;5.660;2024-02-21T02:45:45;37.63;;;5.65;;
52494;SDS011;38405;53.212;5.660;2024-02-21T02:48:11;40.33;;;7.18;;
52494;SDS011;38405;53.212;5.660;2024-02-21T02:50:36;45.15;;;6.07;;
52494;SDS011;38405;53.212;5.660;2024-02-21T02:53:02;45.47;;;6.70;;
52494;SDS011;38405;53.212;5.660;2024-02-21T02:55:28;51.78;;;7.38;;
52494;SDS011;38405;53.212;5.660;2024-02-21T02:57:53;46.72;;;6.50;;
52494;SDS011;38405;53.212;5.660;2024-02-21T03:00:19;37.90;;;6.85;;
52494;SDS011;38405;53.212;5.660;2024-02-21T03:02:46;44.33;;;6.50;;
52494;SDS011;38405;53.212;5.660;2024-02-21T03:05:17;64.30;;;7.30;;
52494;SDS011;38405;53.212;5.660;2024-02-21T03:07:46;54.65;;;7.28;;
52494;SDS011;38405;53.212;5.660;2024-02-21T03:10:13;45.13;;;6.45;;
52494;SDS011;38405;53.212;5.660;2024-02-21T03:12:41;45.92;;;6.40;;
52494;SDS011;38405;53.212;5.660;2024-02-21T03:15:07;42.67;;;6.75;;
52494;SDS011;38405;53.212;5.660;2024-02-21T03:17:33;45.88;;;7.63;;
52494;SDS011;38405;53.212;5.660;2024-02-21T03:19:59;53.10;;;8.30;;
52494;SDS011;38405;53.212;5.660;2024-02-21T03:22:26;43.83;;;5.80;;
52494;SDS011;38405;53.212;5.660;2024-02-21T03:24:52;36.15;;;6.30;;
52494;SDS011;38405;53.212;5.660;2024-02-21T03:27:18;49.38;;;6.30;;
52494;SDS011;38405;53.212;5.660;2024-02-21T03:29:43;64.70;;;8.05;;
52494;SDS011;38405;53.212;5.660;2024-02-21T03:32:09;42.10;;;7.38;;
52494;SDS011;38405;53.212;5.660;2024-02-21T03:34:35;38.95;;;6.38;;
52494;SDS011;38405;53.212;5.660;2024-02-21T03:37:00;48.00;;;7.28;;
52494;SDS011;38405;53.212;5.660;2024-02-21T03:39:26;51.47;;;6.50;;
52494;SDS011;38405;53.212;5.660;2024-02-21T03:41:52;44.45;;;6.38;;
52494;SDS011;38405;53.212;5.660;2024-02-21T03:44:18;38.42;;;5.93;;
52494;SDS011;38405;53.212;5.660;2024-02-21T03:46:44;42.67;;;6.85;;
52494;SDS011;38405;53.212;5.660;2024-02-21T03:49:10;36.53;;;5.35;;
52494;SDS011;38405;53.212;5.660;2024-02-21T03:51:35;49.78;;;6.90;;
52494;SDS011;38405;53.212;5.660;2024-02-21T03:54:01;45.00;;;5.93;;
52494;SDS011;38405;53.212;5.660;2024-02-21T03:56:26;39.47;;;6.25;;
52494;SDS011;38405;53.212;5.660;2024-02-21T03:58:52;33.28;;;5.65;;
52494;SDS011;38405;53.212;5.660;2024-02-21T04:01:18;35.03;;;6.18;;
52494;SDS011;38405;53.212;5.660;2024-02-21T04:03:44;37.05;;;5.72;;
52494;SDS011;38405;53.212;5.660;2024-02-21T04:06:09;39.30;;;6.38;;
52494;SDS011;38405;53.212;5.660;2024-02-21T04:08:35;28.63;;;5.45;;
52494;SDS011;38405;53.212;5.660;2024-02-21T04:11:01;32.28;;;5.93;;
52494;SDS011;38405;53.212;5.660;2024-02-21T04:13:27;37.58;;;5.60;;
52494;SDS011;38405;53.212;5.660;2024-02-21T04:15:53;41.72;;;5.90;;
52494;SDS011;38405;53.212;5.660;2024-02-21T04:18:18;33.78;;;5.32;;
52494;SDS011;38405;53.212;5.660;2024-02-21T04:20:44;43.47;;;6.65;;
52494;SDS011;38405;53.212;5.660;2024-02-21T04:23:10;32.88;;;5.55;;
52494;SDS011;38405;53.212;5.660;2024-02-21T04:25:36;30.88;;;4.70;;
52494;SDS011;38405;53.212;5.660;2024-02-21T04:28:01;31.05;;;5.78;;
52494;SDS011;38405;53.212;5.660;2024-02-21T04:30:27;38.35;;;5.97;;
52494;SDS011;38405;53.212;5.660;2024-02-21T04:32:53;32.13;;;6.13;;
52494;SDS011;38405;53.212;5.660;2024-02-21T04:35:19;31.85;;;4.85;;
52494;SDS011;38405;53.212;5.660;2024-02-21T04:37:45;31.20;;;4.35;;
52494;SDS011;38405;53.212;5.660;2024-02-21T04:40:10;37.40;;;6.03;;
52494;SDS011;38405;53.212;5.660;2024-02-21T04:42:36;44.10;;;6.05;;
52494;SDS011;38405;53.212;5.660;2024-02-21T04:45:02;45.85;;;6.15;;
52494;SDS011;38405;53.212;5.660;2024-02-21T04:47:28;43.88;;;5.97;;
52494;SDS011;38405;53.212;5.660;2024-02-21T04:49:53;34.00;;;5.05;;
52494;SDS011;38405;53.212;5.660;2024-02-21T04:52:19;39.88;;;6.45;;
52494;SDS011;38405;53.212;5.660;2024-02-21T04:54:45;41.70;;;5.70;;
52494;SDS011;38405;53.212;5.660;2024-02-21T04:57:10;35.95;;;5.28;;
52494;SDS011;38405;53.212;5.660;2024-02-21T04:59:36;46.97;;;6.03;;
52494;SDS011;38405;53.212;5.660;2024-02-21T05:02:02;43.28;;;5.75;;
52494;SDS011;38405;53.212;5.660;2024-02-21T05:04:28;35.25;;;5.60;;
52494;SDS011;38405;53.212;5.660;2024-02-21T05:06:53;30.58;;;5.13;;
52494;SDS011;38405;53.212;5.660;2024-02-21T05:09:19;46.75;;;5.82;;
52494;SDS011;38405;53.212;5.660;2024-02-21T05:11:46;36.83;;;5.43;;
52494;SDS011;38405;53.212;5.660;2024-02-21T05:14:11;37.72;;;6.22;;
52494;SDS011;38405;53.212;5.660;2024-02-21T05:16:38;34.75;;;5.68;;
52494;SDS011;38405;53.212;5.660;2024-02-21T05:19:04;27.92;;;5.05;;
52494;SDS011;38405;53.212;5.660;2024-02-21T05:21:30;35.35;;;5.78;;
52494;SDS011;38405;53.212;5.660;2024-02-21T05:23:56;45.97;;;6.07;;
52494;SDS011;38405;53.212;5.660;2024-02-21T05:26:22;35.67;;;6.22;;
52494;SDS011;38405;53.212;5.660;2024-02-21T05:28:49;33.90;;;5.80;;
52494;SDS011;38405;53.212;5.660;2024-02-21T05:31:17;36.17;;;5.88;;
52494;SDS011;38405;53.212;5.660;2024-02-21T05:33:43;33.72;;;5.78;;
52494;SDS011;38405;53.212;5.660;2024-02-21T05:36:09;38.17;;;5.82;;
52494;SDS011;38405;53.212;5.660;2024-02-21T05:38:35;38.50;;;6.50;;
52494;SDS011;38405;53.212;5.660;2024-02-21T05:41:01;32.63;;;6.13;;
52494;SDS011;38405;53.212;5.660;2024-02-21T05:43:27;31.77;;;5.88;;
52494;SDS011;38405;53.212;5.660;2024-02-21T05:45:52;32.28;;;5.65;;
52494;SDS011;38405;53.212;5.660;2024-02-21T05:48:18;42.10;;;6.25;;
52494;SDS011;38405;53.212;5.660;2024-02-21T05:50:44;29.67;;;5.43;;
52494;SDS011;38405;53.212;5.660;2024-02-21T05:53:10;35.70;;;5.60;;
52494;SDS011;38405;53.212;5.660;2024-02-21T05:55:36;30.65;;;5.43;;
52494;SDS011;38405;53.212;5.660;2024-02-21T05:58:02;31.00;;;5.90;;
52494;SDS011;38405;53.212;5.660;2024-02-21T06:00:28;33.97;;;4.82;;
52494;SDS011;38405;53.212;5.660;2024-02-21T06:02:54;36.65;;;5.72;;
52494;SDS011;38405;53.212;5.660;2024-02-21T06:05:20;31.60;;;5.80;;
52494;SDS011;38405;53.212;5.660;2024-02-21T06:07:45;29.10;;;5.45;;
52494;SDS011;38405;53.212;5.660;2024-02-21T06:10:11;32.30;;;5.13;;
52494;SDS011;38405;53.212;5.660;2024-02-21T06:12:37;26.75;;;5.20;;
52494;SDS011;38405;53.212;5.660;2024-02-21T06:15:02;32.72;;;6.18;;
52494;SDS011;38405;53.212;5.660;2024-02-21T06:17:28;27.83;;;6.10;;
52494;SDS011;38405;53.212;5.660;2024-02-21T06:19:54;35.28;;;6.07;;
52494;SDS011;38405;53.212;5.660;2024-02-21T06:22:19;25.42;;;5.30;;
52494;SDS011;38405;53.212;5.660;2024-02-21T06:24:45;28.95;;;5.97;;
52494;SDS011;38405;53.212;5.660;2024-02-21T06:27:11;35.50;;;5.95;;
52494;SDS011;38405;53.212;5.660;2024-02-21T06:29:37;31.40;;;5.88;;
52494;SDS011;38405;53.212;5.660;2024-02-21T06:32:02;34.40;;;6.13;;
52494;SDS011;38405;53.212;5.660;2024-02-21T06:34:28;30.45;;;5.95;;
52494;SDS011;38405;53.212;5.660;2024-02-21T06:36:54;27.42;;;5.97;;
52494;SDS011;38405;53.212;5.660;2024-02-21T06:39:19;35.38;;;5.45;;
52494;SDS011;38405;53.212;5.660;2024-02-21T06:41:46;35.25;;;5.85;;
52494;SDS011;38405;53.212;5.660;2024-02-21T06:44:15;35.97;;;6.28;;
52494;SDS011;38405;53.212;5.660;2024-02-21T06:46:43;35.50;;;6.13;;
52494;SDS011;38405;53.212;5.660;2024-02-21T06:49:09;42.40;;;6.38;;
52494;SDS011;38405;53.212;5.660;2024-02-21T06:51:40;27.90;;;6.70;;
52494;SDS011;38405;53.212;5.660;2024-02-21T06:54:07;32.20;;;5.97;;
52494;SDS011;38405;53.212;5.660;2024-02-21T06:56:33;40.90;;;7.28;;
52494;SDS011;38405;53.212;5.660;2024-02-21T06:58:58;34.33;;;7.40;;
52494;SDS011;38405;53.212;5.660;2024-02-21T07:01:24;45.75;;;8.25;;
52494;SDS011;38405;53.212;5.660;2024-02-21T07:03:50;44.20;;;7.75;;
52494;SDS011;38405;53.212;5.660;2024-02-21T07:06:16;46.92;;;8.07;;
52494;SDS011;38405;53.212;5.660;2024-02-21T07:08:41;56.63;;;8.70;;
52494;SDS011;38405;53.212;5.660;2024-02-21T07:11:07;46.83;;;8.93;;
52494;SDS011;38405;53.212;5.660;2024-02-21T07:13:33;45.55;;;8.40;;
52494;SDS011;38405;53.212;5.660;2024-02-21T07:15:58;51.13;;;9.65;;
52494;SDS011;38405;53.212;5.660;2024-02-21T07:18:24;47.58;;;10.07;;
52494;SDS011;38405;53.212;5.660;2024-02-21T07:20:52;60.88;;;10.20;;
52494;SDS011;38405;53.212;5.660;2024-02-21T07:23:18;54.28;;;9.38;;
52494;SDS011;38405;53.212;5.660;2024-02-21T07:25:44;67.32;;;10.40;;
52494;SDS011;38405;53.212;5.660;2024-02-21T07:28:09;43.33;;;9.77;;
52494;SDS011;38405;53.212;5.660;2024-02-21T07:30:35;57.55;;;9.55;;
52494;SDS011;38405;53.212;5.660;2024-02-21T07:33:01;55.05;;;10.25;;
52494;SDS011;38405;53.212;5.660;2024-02-21T07:35:27;69.60;;;11.82;;
52494;SDS011;38405;53.212;5.660;2024-02-21T07:37:52;48.40;;;10.85;;
52494;SDS011;38405;53.212;5.660;2024-02-21T07:40:18;60.97;;;12.30;;
52494;SDS011;38405;53.212;5.660;2024-02-21T07:42:44;60.47;;;12.02;;
52494;SDS011;38405;53.212;5.660;2024-02-21T07:45:10;52.85;;;10.30;;
52494;SDS011;38405;53.212;5.660;2024-02-21T07:47:36;52.25;;;11.60;;
52494;SDS011;38405;53.212;5.660;2024-02-21T07:50:02;56.28;;;11.27;;
52494;SDS011;38405;53.212;5.660;2024-02-21T07:52:31;47.83;;;11.48;;
52494;SDS011;38405;53.212;5.660;2024-02-21T07:54:56;65.30;;;11.98;;
52494;SDS011;38405;53.212;5.660;2024-02-21T07:57:22;46.97;;;11.95;;
52494;SDS011;38405;53.212;5.660;2024-02-21T07:59:48;51.63;;;10.90;;
52494;SDS011;38405;53.212;5.660;2024-02-21T08:02:16;56.67;;;11.35;;
52494;SDS011;38405;53.212;5.660;2024-02-21T08:04:42;67.38;;;12.57;;
52494;SDS011;38405;53.212;5.660;2024-02-21T08:07:08;50.58;;;11.85;;
52494;SDS011;38405;53.212;5.660;2024-02-21T08:09:34;52.45;;;11.27;;
52494;SDS011;38405;53.212;5.660;2024-02-21T08:12:02;45.58;;;11.18;;
52494;SDS011;38405;53.212;5.660;2024-02-21T08:14:29;54.88;;;11.90;;
52494;SDS011;38405;53.212;5.660;2024-02-21T08:16:56;61.67;;;13.38;;
52494;SDS011;38405;53.212;5.660;2024-02-21T08:19:21;58.22;;;13.68;;
52494;SDS011;38405;53.212;5.660;2024-02-21T08:21:50;52.33;;;12.40;;
52494;SDS011;38405;53.212;5.660;2024-02-21T08:24:16;47.42;;;12.35;;
52494;SDS011;38405;53.212;5.660;2024-02-21T08:26:41;47.72;;;12.63;;
52494;SDS011;38405;53.212;5.660;2024-02-21T08:29:09;54.33;;;10.82;;
52494;SDS011;38405;53.212;5.660;2024-02-21T08:31:35;36.45;;;9.93;;
52494;SDS011;38405;53.212;5.660;2024-02-21T08:34:01;52.03;;;11.27;;
52494;SDS011;38405;53.212;5.660;2024-02-21T08:36:30;37.58;;;9.90;;
52494;SDS011;38405;53.212;5.660;2024-02-21T08:38:56;38.85;;;10.68;;
52494;SDS011;38405;53.212;5.660;2024-02-21T08:41:23;35.88;;;10.20;;
52494;SDS011;38405;53.212;5.660;2024-02-21T08:43:52;45.30;;;10.07;;
52494;SDS011;38405;53.212;5.660;2024-02-21T08:46:19;36.03;;;9.23;;
52494;SDS011;38405;53.212;5.660;2024-02-21T08:48:45;28.27;;;8.38;;
52494;SDS011;38405;53.212;5.660;2024-02-21T08:51:11;33.80;;;8.13;;
52494;SDS011;38405;53.212;5.660;2024-02-21T08:53:40;30.73;;;8.63;;
52494;SDS011;38405;53.212;5.660;2024-02-21T08:56:06;35.10;;;9.13;;
52494;SDS011;38405;53.212;5.660;2024-02-21T08:58:35;34.92;;;8.40;;
52494;SDS011;38405;53.212;5.660;2024-02-21T09:01:02;30.98;;;8.05;;
52494;SDS011;38405;53.212;5.660;2024-02-21T09:03:30;30.25;;;9.63;;
52494;SDS011;38405;53.212;5.660;2024-02-21T09:06:01;29.77;;;9.52;;
52494;SDS011;38405;53.212;5.660;2024-02-21T09:08:27;32.08;;;10.95;;
52494;SDS011;38405;53.212;5.660;2024-02-21T09:10:53;37.05;;;13.15;;
52494;SDS011;38405;53.212;5.660;2024-02-21T09:13:18;29.35;;;11.77;;
52494;SDS011;38405;53.212;5.660;2024-02-21T09:15:44;27.65;;;12.00;;
52494;SDS011;38405;53.212;5.660;2024-02-21T09:18:10;35.53;;;12.70;;
52494;SDS011;38405;53.212;5.660;2024-02-21T09:20:36;35.63;;;13.93;;
52494;SDS011;38405;53.212;5.660;2024-02-21T09:23:01;31.63;;;14.98;;
52494;SDS011;38405;53.212;5.660;2024-02-21T09:25:27;33.30;;;14.93;;
52494;SDS011;38405;53.212;5.660;2024-02-21T09:27:53;34.88;;;16.35;;
52494;SDS011;38405;53.212;5.660;2024-02-21T09:30:20;51.42;;;16.98;;
52494;SDS011;38405;53.212;5.660;2024-02-21T09:32:45;29.02;;;17.13;;
52494;SDS011;38405;53.212;5.660;2024-02-21T09:35:11;28.42;;;17.08;;
52494;SDS011;38405;53.212;5.660;2024-02-21T09:37:38;40.92;;;18.45;;
52494;SDS011;38405;53.212;5.660;2024-02-21T09:40:04;30.67;;;18.30;;
52494;SDS011;38405;53.212;5.660;2024-02-21T09:42:40;32.88;;;17.95;;
52494;SDS011;38405;53.212;5.660;2024-02-21T09:50:31;33.08;;;18.65;;
52494;SDS011;38405;53.212;5.660;2024-02-21T09:52:58;30.17;;;19.27;;
52494;SDS011;38405;53.212;5.660;2024-02-21T09:55:26;37.75;;;19.23;;
52494;SDS011;38405;53.212;5.660;2024-02-21T09:57:54;34.92;;;19.13;;
52494;SDS011;38405;53.212;5.660;2024-02-21T10:00:23;29.00;;;19.77;;
52494;SDS011;38405;53.212;5.660;2024-02-21T10:02:48;32.38;;;19.95;;
52494;SDS011;38405;53.212;5.660;2024-02-21T10:05:15;34.70;;;20.50;;
52494;SDS011;38405;53.212;5.660;2024-02-21T10:07:41;26.25;;;19.40;;
52494;SDS011;38405;53.212;5.660;2024-02-21T10:10:07;33.67;;;20.42;;
52494;SDS011;38405;53.212;5.660;2024-02-21T10:12:33;30.98;;;18.75;;
52494;SDS011;38405;53.212;5.660;2024-02-21T10:15:02;31.33;;;19.73;;
52494;SDS011;38405;53.212;5.660;2024-02-21T10:17:29;33.33;;;20.40;;
52494;SDS011;38405;53.212;5.660;2024-02-21T10:19:54;30.52;;;19.30;;
52494;SDS011;38405;53.212;5.660;2024-02-21T10:22:20;30.90;;;18.77;;
52494;SDS011;38405;53.212;5.660;2024-02-21T10:24:46;27.55;;;19.25;;
52494;SDS011;38405;53.212;5.660;2024-02-21T10:27:12;31.60;;;18.98;;
52494;SDS011;38405;53.212;5.660;2024-02-21T10:29:38;31.90;;;18.30;;
52494;SDS011;38405;53.212;5.660;2024-02-21T10:32:08;30.63;;;19.05;;
52494;SDS011;38405;53.212;5.660;2024-02-21T10:34:34;25.75;;;18.10;;
52494;SDS011;38405;53.212;5.660;2024-02-21T10:37:01;31.88;;;19.73;;
52494;SDS011;38405;53.212;5.660;2024-02-21T10:39:35;32.35;;;18.60;;
52494;SDS011;38405;53.212;5.660;2024-02-21T10:42:04;32.28;;;19.08;;
52494;SDS011;38405;53.212;5.660;2024-02-21T10:44:31;30.35;;;19.33;;
52494;SDS011;38405;53.212;5.660;2024-02-21T10:46:58;29.55;;;18.88;;
52494;SDS011;38405;53.212;5.660;2024-02-21T10:49:25;38.38;;;18.90;;
52494;SDS011;38405;53.212;5.660;2024-02-21T10:51:58;31.75;;;18.40;;
52494;SDS011;38405;53.212;5.660;2024-02-21T10:57:10;36.10;;;19.00;;
52494;SDS011;38405;53.212;5.660;2024-02-21T10:59:37;29.83;;;18.83;;
52494;SDS011;38405;53.212;5.660;2024-02-21T11:02:05;29.75;;;18.35;;
52494;SDS011;38405;53.212;5.660;2024-02-21T11:04:31;29.15;;;18.70;;
52494;SDS011;38405;53.212;5.660;2024-02-21T11:07:01;30.33;;;19.08;;
52494;SDS011;38405;53.212;5.660;2024-02-21T11:09:30;31.70;;;19.42;;
52494;SDS011;38405;53.212;5.660;2024-02-21T11:11:57;28.63;;;19.48;;
52494;SDS011;38405;53.212;5.660;2024-02-21T11:14:27;30.60;;;19.40;;
52494;SDS011;38405;53.212;5.660;2024-02-21T11:16:53;34.92;;;19.75;;
52494;SDS011;38405;53.212;5.660;2024-02-21T11:19:27;36.50;;;20.95;;
52494;SDS011;38405;53.212;5.660;2024-02-21T11:21:55;34.53;;;20.13;;
52494;SDS011;38405;53.212;5.660;2024-02-21T11:24:40;35.90;;;20.60;;
52494;SDS011;38405;53.212;5.660;2024-02-21T11:27:12;35.13;;;20.33;;
52494;SDS011;38405;53.212;5.660;2024-02-21T11:29:45;30.85;;;19.95;;
52494;SDS011;38405;53.212;5.660;2024-02-21T11:34:41;32.30;;;20.77;;
52494;SDS011;38405;53.212;5.660;2024-02-21T11:37:18;31.77;;;19.75;;
52494;SDS011;38405;53.212;5.660;2024-02-21T11:39:44;32.80;;;22.33;;
52494;SDS011;38405;53.212;5.660;2024-02-21T11:42:10;30.58;;;22.13;;
52494;SDS011;38405;53.212;5.660;2024-02-21T11:44:37;41.67;;;23.30;;
52494;SDS011;38405;53.212;5.660;2024-02-21T11:47:03;30.98;;;21.98;;
52494;SDS011;38405;53.212;5.660;2024-02-21T11:49:29;31.23;;;21.58;;
52494;SDS011;38405;53.212;5.660;2024-02-21T11:52:02;33.22;;;20.77;;
52494;SDS011;38405;53.212;5.660;2024-02-21T11:54:32;28.15;;;20.88;;
52494;SDS011;38405;53.212;5.660;2024-02-21T11:56:59;28.77;;;21.15;;
52494;SDS011;38405;53.212;5.660;2024-02-21T11:59:25;32.10;;;22.30;;
52494;SDS011;38405;53.212;5.660;2024-02-21T12:01:52;31.67;;;21.10;;
52494;SDS011;38405;53.212;5.660;2024-02-21T12:04:18;27.40;;;20.55;;
52494;SDS011;38405;53.212;5.660;2024-02-21T12:06:45;32.63;;;22.08;;
52494;SDS011;38405;53.212;5.660;2024-02-21T12:09:14;29.13;;;20.88;;
52494;SDS011;38405;53.212;5.660;2024-02-21T12:11:44;33.53;;;20.80;;
52494;SDS011;38405;53.212;5.660;2024-02-21T12:14:11;29.10;;;19.60;;
52494;SDS011;38405;53.212;5.660;2024-02-21T12:16:41;29.52;;;19.73;;
52494;SDS011;38405;53.212;5.660;2024-02-21T12:19:07;27.65;;;18.80;;
52494;SDS011;38405;53.212;5.660;2024-02-21T12:21:34;29.60;;;19.60;;
52494;SDS011;38405;53.212;5.660;2024-02-21T12:26:42;23.92;;;17.50;;
52494;SDS011;38405;53.212;5.660;2024-02-21T12:29:08;19.77;;;16.40;;
52494;SDS011;38405;53.212;5.660;2024-02-21T12:31:37;23.95;;;16.85;;
52494;SDS011;38405;53.212;5.660;2024-02-21T12:34:04;35.45;;;17.00;;
52494;SDS011;38405;53.212;5.660;2024-02-21T12:36:33;26.75;;;15.32;;
52494;SDS011;38405;53.212;5.660;2024-02-21T12:38:59;22.48;;;15.27;;
52494;SDS011;38405;53.212;5.660;2024-02-21T12:41:26;22.77;;;14.60;;
52494;SDS011;38405;53.212;5.660;2024-02-21T12:43:53;20.80;;;14.23;;
52494;SDS011;38405;53.212;5.660;2024-02-21T12:46:18;27.95;;;14.32;;
52494;SDS011;38405;53.212;5.660;2024-02-21T12:48:44;19.35;;;12.88;;
52494;SDS011;38405;53.212;5.660;2024-02-21T12:51:10;21.38;;;12.85;;
52494;SDS011;38405;53.212;5.660;2024-02-21T12:53:36;18.65;;;12.68;;
52494;SDS011;38405;53.212;5.660;2024-02-21T12:56:01;19.30;;;12.45;;
52494;SDS011;38405;53.212;5.660;2024-02-21T12:58:30;23.17;;;12.00;;
52494;SDS011;38405;53.212;5.660;2024-02-21T13:00:56;16.00;;;11.15;;
52494;SDS011;38405;53.212;5.660;2024-02-21T13:03:22;17.58;;;11.38;;
52494;SDS011;38405;53.212;5.660;2024-02-21T13:05:48;17.10;;;11.30;;
52494;SDS011;38405;53.212;5.660;2024-02-21T13:08:13;15.40;;;10.43;;
52494;SDS011;38405;53.212;5.660;2024-02-21T13:10:39;15.40;;;10.95;;
52494;SDS011;38405;53.212;5.660;2024-02-21T13:13:04;14.57;;;10.52;;
52494;SDS011;38405;53.212;5.660;2024-02-21T13:15:30;16.10;;;9.68;;
52494;SDS011;38405;53.212;5.660;2024-02-21T13:17:56;13.50;;;9.02;;
52494;SDS011;38405;53.212;5.660;2024-02-21T13:20:25;12.63;;;9.80;;
52494;SDS011;38405;53.212;5.660;2024-02-21T13:22:52;11.85;;;8.32;;
52494;SDS011;38405;53.212;5.660;2024-02-21T13:25:18;12.63;;;8.70;;
52494;SDS011;38405;53.212;5.660;2024-02-21T13:27:46;11.38;;;8.23;;
52494;SDS011;38405;53.212;5.660;2024-02-21T13:30:12;16.27;;;9.70;;
52494;SDS011;38405;53.212;5.660;2024-02-21T13:32:41;12.32;;;9.57;;
52494;SDS011;38405;53.212;5.660;2024-02-21T13:35:07;14.90;;;9.65;;
52494;SDS011;38405;53.212;5.660;2024-02-21T13:37:34;13.73;;;8.95;;
52494;SDS011;38405;53.212;5.660;2024-02-21T13:39:59;16.88;;;10.30;;
52494;SDS011;38405;53.212;5.660;2024-02-21T13:42:25;12.15;;;9.05;;
52494;SDS011;38405;53.212;5.660;2024-02-21T13:44:53;13.40;;;8.25;;
52494;SDS011;38405;53.212;5.660;2024-02-21T13:47:18;12.93;;;9.43;;
52494;SDS011;38405;53.212;5.660;2024-02-21T13:49:44;13.23;;;9.60;;
52494;SDS011;38405;53.212;5.660;2024-02-21T13:52:09;13.23;;;9.45;;
52494;SDS011;38405;53.212;5.660;2024-02-21T13:54:35;15.60;;;10.43;;
52494;SDS011;38405;53.212;5.660;2024-02-21T13:57:01;14.13;;;9.73;;
52494;SDS011;38405;53.212;5.660;2024-02-21T13:59:27;15.05;;;10.60;;
52494;SDS011;38405;53.212;5.660;2024-02-21T14:01:53;13.35;;;10.32;;
52494;SDS011;38405;53.212;5.660;2024-02-21T14:04:19;12.98;;;10.27;;
52494;SDS011;38405;53.212;5.660;2024-02-21T14:06:45;13.18;;;10.07;;
52494;SDS011;38405;53.212;5.660;2024-02-21T14:09:11;18.50;;;9.98;;
52494;SDS011;38405;53.212;5.660;2024-02-21T14:11:37;16.83;;;10.13;;
52494;SDS011;38405;53.212;5.660;2024-02-21T14:14:04;11.07;;;9.88;;
52494;SDS011;38405;53.212;5.660;2024-02-21T14:16:30;11.65;;;9.20;;
52494;SDS011;38405;53.212;5.660;2024-02-21T14:18:57;14.48;;;9.73;;
52494;SDS011;38405;53.212;5.660;2024-02-21T14:21:22;14.85;;;10.23;;
52494;SDS011;38405;53.212;5.660;2024-02-21T14:23:48;13.32;;;9.60;;
52494;SDS011;38405;53.212;5.660;2024-02-21T14:26:14;12.00;;;10.48;;
52494;SDS011;38405;53.212;5.660;2024-02-21T14:28:39;14.35;;;10.57;;
52494;SDS011;38405;53.212;5.660;2024-02-21T14:31:06;13.85;;;9.93;;
52494;SDS011;38405;53.212;5.660;2024-02-21T14:33:37;11.82;;;9.25;;
52494;SDS011;38405;53.212;5.660;2024-02-21T14:36:03;13.25;;;10.05;;